New Paris, Indiana
Current Conditions -  °F | °C
As of 1:53 PM on Friday 31 Oct 2014 (Local Time) from KGSH Reporting Station
Light Rain Light Rain  
Wind Chill: 38°   Ceiling: 3000
Heat Index: 44°   Visibility: 10mi
Dew Point: 36°   Wind: 12mph
Humidity: 73%   Direction: 350°N
Pressure: 29.92"   Gusts: NA
Location:  41.5°N, 85.83°W
Report Text: KGSH 311753Z AUTO 35010KT 10SM -RA SCT021 BKN030 OVC038 07/02 A2992 RMK AO2 RAB53 SLP137 P0000 60008 T00670022 10067 20033 56009
Loading
Personal Weather Stations






























Interactive Weather Map New forecast layout! Learn more

10-Day Weather Forecast

Advertisements
Track Severe Weather on mobile